Time;durP1;ratioP1;P1;durP2;ratioP2;P2;SDS_P1;SDS_P2;PMS_P1;PMS_P2;Temp;Humidity;BMP_temperature;BMP_pressure;BME280_temperature;BME280_humidity;BME280_pressure;Samples;Min_cycle;Max_cycle;Signal;HPM_P1;HPM_P2
2022/02/08 00:02:01;;;;;;;20.17;2.22;;;9.00;99.90;;;;;;6282407;22;20073;-93
2022/02/08 00:04:31;;;;;;;19.90;1.88;;;9.00;99.90;;;;;;6282879;22;20411;-93
2022/02/08 00:07:04;;;;;;;15.05;2.40;;;9.00;99.90;;;;;;6282462;22;19999;-94
2022/02/08 00:09:32;;;;;;;17.10;2.63;;;9.00;99.90;;;;;;6282237;22;20003;-93
2022/02/08 00:11:58;;;;;;;19.55;2.15;;;8.90;99.90;;;;;;6282631;22;19999;-93
2022/02/08 00:14:24;;;;;;;16.30;2.50;;;8.90;99.90;;;;;;6282487;22;20444;-92
2022/02/08 00:16:53;;;;;;;13.27;2.47;;;9.00;99.90;;;;;;6309210;22;20011;-93
2022/02/08 00:19:19;;;;;;;14.13;2.03;;;9.00;99.90;;;;;;6282311;22;20007;-93
2022/02/08 00:21:45;;;;;;;16.67;3.20;;;9.00;99.90;;;;;;6282051;22;20026;-93
2022/02/08 00:24:14;;;;;;;16.85;2.00;;;9.00;99.90;;;;;;6282145;22;20003;-93
2022/02/08 00:26:40;;;;;;;18.08;2.25;;;9.00;99.90;;;;;;6282534;22;20114;-93
2022/02/08 00:29:06;;;;;;;16.98;2.92;;;9.00;99.90;;;;;;6309494;22;20003;-94
2022/02/08 00:31:31;;;;;;;15.90;1.80;;;9.00;99.90;;;;;;6282045;22;20007;-92
2022/02/08 00:33:57;;;;;;;11.02;2.13;;;9.00;99.90;;;;;;6282398;22;20023;-94
2022/02/08 00:36:23;;;;;;;13.00;1.90;;;9.00;99.90;;;;;;6282097;22;20007;-93
2022/02/08 00:38:50;;;;;;;10.50;1.60;;;9.00;99.90;;;;;;6282043;22;20056;-93
2022/02/08 00:41:16;;;;;;;14.00;2.33;;;9.00;99.90;;;;;;6281637;22;20094;-93
2022/02/08 00:43:52;;;;;;;10.82;1.80;;;9.00;99.90;;;;;;6282373;22;19999;-92
2022/02/08 00:49:30;;;;;;;14.77;3.30;;;9.00;99.90;;;;;;6246243;23;20023;-94
2022/02/08 00:52:04;;;;;;;16.58;1.70;;;9.00;99.90;;;;;;6220519;23;20011;-91
2022/02/08 00:54:30;;;;;;;8.65;1.50;;;9.00;99.90;;;;;;6245817;23;20016;-92
2022/02/08 00:56:55;;;;;;;12.52;2.45;;;9.00;99.90;;;;;;6219005;23;20012;-92
2022/02/08 00:59:21;;;;;;;12.65;1.83;;;9.00;99.90;;;;;;6245676;23;20004;-93
2022/02/08 01:01:47;;;;;;;14.60;1.58;;;9.00;99.90;;;;;;6245930;23;20016;-92
2022/02/08 01:04:13;;;;;;;11.98;2.00;;;9.00;99.90;;;;;;6220803;23;20004;-94
2022/02/08 01:06:41;;;;;;;9.18;1.65;;;9.10;99.90;;;;;;6247002;23;20425;-93
2022/02/08 01:09:14;;;;;;;13.05;1.75;;;9.00;99.90;;;;;;6248954;23;20000;-92
2022/02/08 01:11:51;;;;;;;18.42;2.15;;;9.00;99.90;;;;;;6246091;23;20087;-91
2022/02/08 01:14:22;;;;;;;12.20;1.50;;;9.10;99.90;;;;;;6245757;23;20004;-94
2022/02/08 01:16:48;;;;;;;10.65;1.80;;;9.00;99.90;;;;;;6246069;23;20080;-93
2022/02/08 01:19:18;;;;;;;15.13;1.33;;;9.10;99.90;;;;;;6246351;23;20004;-93
2022/02/08 01:21:46;;;;;;;14.30;2.17;;;9.10;99.90;;;;;;6244861;23;20479;-92
2022/02/08 01:24:12;;;;;;;8.82;1.65;;;9.10;99.90;;;;;;6295200;22;20007;-92
2022/02/08 01:26:49;;;;;;;12.93;1.50;;;9.10;99.90;;;;;;6277636;22;20017;-93
2022/02/08 01:30:00;;;;;;;12.57;2.47;;;9.10;99.90;;;;;;6277486;22;20053;-95
2022/02/08 01:32:21;;;;;;;13.60;1.80;;;9.20;99.90;;;;;;6265229;22;20000;-92
2022/02/08 01:48:09;;;;;;;13.85;2.40;;;9.20;99.90;;;;;;6280080;22;20004;-95
2022/02/08 01:50:36;;;;;;;7.80;1.60;;;9.20;99.90;;;;;;6277529;22;20012;-93
2022/02/08 01:53:04;;;;;;;14.68;2.15;;;9.20;99.90;;;;;;6276290;22;20035;-94
2022/02/08 01:55:30;;;;;;;12.60;1.48;;;9.20;99.90;;;;;;6277031;22;20027;-93
2022/02/08 01:57:56;;;;;;;19.70;2.70;;;9.30;99.90;;;;;;6277189;22;20004;-93
2022/02/08 02:00:22;;;;;;;10.52;1.60;;;9.30;99.90;;;;;;6276658;22;20019;-93
2022/02/08 02:02:47;;;;;;;17.58;2.10;;;9.30;99.90;;;;;;6277247;22;20054;-93
2022/02/08 02:05:14;;;;;;;12.30;2.20;;;9.20;99.90;;;;;;6276834;22;20011;-92
2022/02/08 02:07:47;;;;;;;11.10;1.40;;;9.30;99.90;;;;;;6276805;22;20430;-92
2022/02/08 02:10:23;;;;;;;13.13;2.03;;;9.30;99.90;;;;;;6276507;22;20031;-94
2022/02/08 02:12:54;;;;;;;17.85;2.30;;;9.30;99.90;;;;;;6277127;22;20012;-93
2022/02/08 02:15:21;;;;;;;8.73;1.58;;;9.30;99.90;;;;;;6277319;22;20003;-92
2022/02/08 02:17:46;;;;;;;13.55;1.70;;;9.30;99.90;;;;;;6276780;22;20015;-93
2022/02/08 02:20:12;;;;;;;10.23;1.73;;;9.30;99.90;;;;;;6277818;22;20435;-93
2022/02/08 02:22:38;;;;;;;10.98;1.63;;;9.30;99.90;;;;;;6277343;22;20007;-93
2022/02/08 02:25:04;;;;;;;17.92;1.73;;;9.30;99.90;;;;;;6277327;22;20027;-92
2022/02/08 02:27:30;;;;;;;16.48;2.03;;;9.20;99.90;;;;;;6277031;22;20008;-93
2022/02/08 02:29:55;;;;;;;10.05;1.98;;;9.20;99.90;;;;;;6279110;22;20029;-93
2022/02/08 02:32:21;;;;;;;9.68;1.90;;;9.20;99.90;;;;;;6285761;22;20057;-93
2022/02/08 02:34:48;;;;;;;10.32;1.38;;;9.20;99.90;;;;;;6282416;22;20053;-93
2022/02/08 02:37:15;;;;;;;18.85;2.30;;;9.30;99.90;;;;;;6286117;22;19999;-93
2022/02/08 02:39:41;;;;;;;8.55;1.98;;;9.30;99.90;;;;;;6292489;22;20008;-92
2022/02/08 02:42:12;;;;;;;11.43;1.50;;;9.30;99.90;;;;;;6283045;22;20097;-93
2022/02/08 02:44:40;;;;;;;6.32;1.20;;;9.30;99.90;;;;;;6280346;22;20039;-92
2022/02/08 02:47:06;;;;;;;15.95;1.20;;;9.20;99.90;;;;;;6280207;22;20015;-95
2022/02/08 02:49:32;;;;;;;7.35;1.77;;;9.30;99.90;;;;;;6278696;22;20003;-93
2022/02/08 02:51:58;;;;;;;15.20;1.92;;;9.30;99.90;;;;;;6278620;22;20003;-94
2022/02/08 02:54:24;;;;;;;8.30;1.85;;;9.30;99.90;;;;;;6286171;22;20007;-93
2022/02/08 02:56:50;;;;;;;11.13;1.45;;;9.40;99.90;;;;;;6282636;22;20039;-92
2022/02/08 02:59:19;;;;;;;9.38;1.67;;;9.40;99.90;;;;;;6278426;22;20003;-92
2022/02/08 03:02:27;;;;;;;7.70;1.38;;;9.40;99.90;;;;;;6278146;22;20023;-92
2022/02/08 03:20:45;;;;;;;6.93;1.00;;;9.50;99.90;;;;;;6318786;22;20465;-94
2022/02/08 03:23:11;;;;;;;5.60;1.02;;;9.50;99.90;;;;;;6283501;22;20015;-93
2022/02/08 03:25:37;;;;;;;6.55;1.23;;;9.50;99.90;;;;;;6284275;22;20007;-94
2022/02/08 03:28:03;;;;;;;11.30;1.48;;;9.50;99.90;;;;;;6283983;22;20053;-95
2022/02/08 03:30:28;;;;;;;9.63;1.73;;;9.50;99.90;;;;;;6283010;22;20007;-92
2022/02/08 03:32:55;;;;;;;13.10;1.40;;;9.50;99.90;;;;;;6284301;22;20388;-94
2022/02/08 03:35:21;;;;;;;10.35;1.75;;;9.60;99.90;;;;;;6282498;22;20055;-94
2022/02/08 03:38:00;;;;;;;9.07;1.33;;;9.60;99.90;;;;;;6284439;22;20003;-96
2022/02/08 03:43:13;;;;;;;11.27;1.77;;;9.60;99.90;;;;;;6321761;22;20083;-94
2022/02/08 03:45:39;;;;;;;11.10;1.30;;;9.60;99.90;;;;;;6283092;22;20021;-95
2022/02/08 03:48:06;;;;;;;8.95;1.38;;;9.60;99.90;;;;;;6282843;22;20010;-96
2022/02/08 03:50:32;;;;;;;10.68;1.60;;;9.60;99.90;;;;;;6282939;22;20007;-95
2022/02/08 03:52:58;;;;;;;11.70;1.38;;;9.60;99.90;;;;;;6282279;22;20011;-95
2022/02/08 03:55:24;;;;;;;10.65;1.48;;;9.50;99.90;;;;;;6282326;22;20003;-94
2022/02/08 03:57:49;;;;;;;3.42;0.70;;;9.50;99.90;;;;;;6283147;22;20003;-94
2022/02/08 04:00:17;;;;;;;11.68;2.10;;;9.60;99.90;;;;;;6283194;22;20010;-94
2022/02/08 04:02:50;;;;;;;15.75;1.30;;;9.60;99.90;;;;;;6283168;22;20015;-94
2022/02/08 04:05:28;;;;;;;6.93;1.67;;;9.60;99.90;;;;;;6284103;22;20430;-93
2022/02/08 04:07:58;;;;;;;13.57;1.40;;;9.60;99.90;;;;;;6284377;22;20114;-93
2022/02/08 04:10:27;;;;;;;7.23;1.20;;;9.60;99.90;;;;;;6283637;22;19999;-95
2022/02/08 04:15:29;;;;;;;13.40;1.40;;;9.60;99.90;;;;;;6314090;22;20101;-94
2022/02/08 04:18:15;;;;;;;10.00;1.45;;;9.60;99.90;;;;;;6278375;22;20015;-95
2022/02/08 04:42:08;;;;;;;;;;;9.60;99.90;;;;;;6303172;22;20031;-94
2022/02/08 04:47:35;;;;;;;7.03;1.60;;;9.60;99.90;;;;;;6189821;23;20009;-92
2022/02/08 04:50:01;;;;;;;11.38;1.60;;;9.60;99.90;;;;;;6187876;23;20047;-92
2022/02/08 04:52:28;;;;;;;9.27;1.35;;;9.60;99.90;;;;;;6197404;23;20009;-93
2022/02/08 05:00:33;;;;;;;8.68;1.48;;;9.70;99.90;;;;;;6185796;23;20013;-94
2022/02/08 05:44:08;;;;;;;7.50;1.05;;;9.80;99.90;;;;;;6156205;23;20512;-93
2022/02/08 05:46:49;;;;;;;7.50;1.05;;;9.80;99.90;;;;;;6154355;23;20113;-94
2022/02/08 05:49:23;;;;;;;9.77;1.23;;;9.80;99.90;;;;;;6129704;23;20006;-92
2022/02/08 05:54:15;;;;;;;5.80;0.80;;;9.80;99.90;;;;;;6154931;23;20037;-96
2022/02/08 05:56:41;;;;;;;8.27;1.08;;;9.80;99.90;;;;;;6128832;23;20036;-94
2022/02/08 05:59:08;;;;;;;3.80;1.00;;;9.80;99.90;;;;;;6129088;23;20006;-93
2022/02/08 06:01:34;;;;;;;5.25;1.00;;;9.80;99.90;;;;;;6129515;23;20104;-95
2022/02/08 06:04:01;;;;;;;5.70;0.70;;;9.80;99.90;;;;;;6129468;23;20006;-94
2022/02/08 06:06:29;;;;;;;20.08;3.35;;;9.80;99.90;;;;;;6129115;23;20373;-93
2022/02/08 06:08:55;;;;;;;8.20;2.75;;;9.80;99.90;;;;;;6129672;23;20117;-93
2022/02/08 06:11:23;;;;;;;5.53;1.15;;;9.80;99.90;;;;;;6129241;23;20433;-94
2022/02/08 06:13:51;;;;;;;5.05;1.20;;;9.80;99.90;;;;;;6154112;23;20149;-93
2022/02/08 06:16:18;;;;;;;7.30;1.20;;;9.80;99.90;;;;;;6129056;23;20021;-93
2022/02/08 06:18:45;;;;;;;9.13;0.95;;;9.80;99.90;;;;;;6254978;22;20023;-94
2022/02/08 06:21:11;;;;;;;7.90;0.90;;;9.80;99.90;;;;;;6281570;22;20021;-93
2022/02/08 06:23:37;;;;;;;2.60;0.60;;;9.80;99.90;;;;;;6280981;22;20078;-93
2022/02/08 06:26:03;;;;;;;4.63;0.63;;;9.80;99.90;;;;;;6281330;22;20010;-94
2022/02/08 06:28:29;;;;;;;9.60;2.63;;;9.80;99.90;;;;;;6281684;22;20011;-94
2022/02/08 06:30:55;;;;;;;2.60;0.90;;;9.70;99.90;;;;;;6285820;22;20011;-91
2022/02/08 06:33:21;;;;;;;6.70;0.90;;;9.70;99.90;;;;;;6285618;22;20052;-92
2022/02/08 06:35:48;;;;;;;5.60;1.88;;;9.70;99.90;;;;;;6279705;22;20007;-93
2022/02/08 06:38:16;;;;;;;4.55;0.70;;;9.70;99.90;;;;;;6280461;22;20003;-93
2022/02/08 06:40:44;;;;;;;4.13;1.05;;;9.70;99.90;;;;;;6279759;22;20007;-93
2022/02/08 06:43:09;;;;;;;7.38;1.30;;;9.70;99.90;;;;;;6280122;22;20003;-92
2022/02/08 06:45:36;;;;;;;6.63;0.80;;;9.60;99.90;;;;;;6279966;22;20086;-93
2022/02/08 06:48:04;;;;;;;3.63;0.70;;;9.70;99.90;;;;;;6279904;22;20007;-91
2022/02/08 06:50:30;;;;;;;2.63;0.80;;;9.70;99.90;;;;;;6280439;22;20038;-92
2022/02/08 06:52:56;;;;;;;2.80;0.70;;;9.60;99.90;;;;;;6279768;22;20056;-93
2022/02/08 06:55:24;;;;;;;8.48;1.10;;;9.60;99.90;;;;;;6280221;22;20035;-92
2022/02/08 06:58:01;;;;;;;4.07;0.88;;;9.60;99.90;;;;;;6280293;22;20003;-94
2022/02/08 07:00:36;;;;;;;8.20;0.93;;;9.70;99.90;;;;;;6279917;22;20003;-89
2022/02/08 07:03:04;;;;;;;6.13;0.98;;;9.60;99.90;;;;;;6280066;22;20011;-93
2022/02/08 07:05:30;;;;;;;3.83;1.00;;;9.60;99.90;;;;;;6280771;22;20003;-91
2022/02/08 07:07:56;;;;;;;4.47;0.95;;;9.60;99.90;;;;;;6307336;22;20011;-93
2022/02/08 07:10:22;;;;;;;3.60;0.70;;;9.60;99.90;;;;;;6280553;22;20006;-95
2022/02/08 07:12:47;;;;;;;9.40;1.42;;;9.60;99.90;;;;;;6280550;22;20071;-91
2022/02/08 07:15:14;;;;;;;6.18;1.20;;;9.60;99.90;;;;;;6276534;22;20431;-92
2022/02/08 07:17:41;;;;;;;7.30;0.98;;;9.60;99.90;;;;;;6279981;22;20451;-91
2022/02/08 07:20:08;;;;;;;3.00;1.10;;;9.60;99.90;;;;;;6280253;22;20039;-93
2022/02/08 07:22:33;;;;;;;6.63;1.52;;;9.60;99.90;;;;;;6279527;22;20018;-93
2022/02/08 07:24:59;;;;;;;4.72;1.02;;;9.60;99.90;;;;;;6279811;22;20003;-94
2022/02/08 07:27:26;;;;;;;5.80;1.13;;;9.60;99.90;;;;;;6280153;22;20003;-92
2022/02/08 07:29:53;;;;;;;3.85;1.00;;;9.60;99.90;;;;;;6279835;22;20015;-91
2022/02/08 07:32:28;;;;;;;6.95;1.80;;;9.60;99.90;;;;;;6278798;22;20094;-92
2022/02/08 07:35:06;;;;;;;11.05;2.13;;;9.60;99.90;;;;;;6279060;22;20435;-91
2022/02/08 07:37:47;;;;;;;10.05;1.60;;;9.60;99.90;;;;;;6279200;22;20027;-92
2022/02/08 07:40:26;;;;;;;5.25;1.20;;;9.60;99.90;;;;;;6278872;22;20084;-91
2022/02/08 07:42:52;;;;;;;7.80;1.88;;;9.60;99.90;;;;;;6278753;22;20003;-92
2022/02/08 07:45:17;;;;;;;5.45;1.42;;;9.60;99.90;;;;;;6279564;22;20162;-92
2022/02/08 07:47:43;;;;;;;10.02;1.50;;;9.60;99.90;;;;;;6280324;22;20086;-91
2022/02/08 07:50:09;;;;;;;8.63;1.85;;;9.60;99.90;;;;;;6281630;22;20003;-94
2022/02/08 07:52:35;;;;;;;9.18;1.45;;;9.60;99.90;;;;;;6280827;22;20007;-93
2022/02/08 07:55:00;;;;;;;10.13;1.50;;;9.50;99.90;;;;;;6278604;22;19996;-94
2022/02/08 07:57:26;;;;;;;7.18;1.88;;;9.50;99.90;;;;;;6278902;22;20098;-92
2022/02/08 07:59:52;;;;;;;9.80;2.50;;;9.60;99.90;;;;;;6280423;22;20076;-93
2022/02/08 08:02:17;;;;;;;12.60;1.58;;;9.50;99.90;;;;;;6280442;22;20094;-93
2022/02/08 08:04:43;;;;;;;9.05;1.38;;;9.60;99.90;;;;;;6280687;22;20008;-94
2022/02/08 08:07:09;;;;;;;10.38;1.77;;;9.50;99.90;;;;;;6280379;22;20011;-93
2022/02/08 08:09:39;;;;;;;7.18;1.33;;;9.50;99.90;;;;;;6281871;22;20059;-93
2022/02/08 08:12:05;;;;;;;9.45;1.40;;;9.60;99.90;;;;;;6281363;22;20033;-93
2022/02/08 08:14:32;;;;;;;6.00;1.30;;;9.50;99.90;;;;;;6285422;22;20011;-92
2022/02/08 08:19:59;;;;;;;10.88;2.42;;;9.60;99.90;;;;;;6190131;23;20017;-92
2022/02/08 08:22:25;;;;;;;7.05;1.80;;;9.60;99.90;;;;;;6184292;23;20031;-93
2022/02/08 08:24:51;;;;;;;12.50;1.70;;;9.60;99.90;;;;;;6184012;23;20084;-92
2022/02/08 08:27:18;;;;;;;6.88;1.50;;;9.60;99.90;;;;;;6182870;23;20016;-91
2022/02/08 08:29:44;;;;;;;8.57;1.30;;;9.60;99.90;;;;;;6181760;23;20047;-93
2022/02/08 08:32:10;;;;;;;7.00;1.40;;;9.60;99.90;;;;;;6185177;23;20028;-93
2022/02/08 08:34:36;;;;;;;10.30;1.70;;;9.60;99.90;;;;;;6184899;23;20504;-93
2022/02/08 08:37:04;;;;;;;12.23;2.22;;;9.60;99.90;;;;;;6184930;23;20004;-93
2022/02/08 08:39:47;;;;;;;10.40;2.08;;;9.60;99.90;;;;;;6160120;23;20017;-93
2022/02/08 08:52:51;;;;;;;9.73;1.60;;;9.60;99.90;;;;;;6185440;23;20005;-94
2022/02/08 08:55:16;;;;;;;10.38;1.52;;;9.70;99.90;;;;;;6309349;22;19999;-94
2022/02/08 08:58:30;;;;;;;19.73;2.05;;;9.70;99.90;;;;;;6293137;22;20018;-95
2022/02/08 09:01:38;;;;;;;13.38;2.13;;;9.70;99.90;;;;;;6287985;22;20010;-93
2022/02/08 09:04:40;;;;;;;6.22;1.23;;;9.70;99.90;;;;;;6274364;22;20023;-96
2022/02/08 09:07:45;;;;;;;16.25;2.35;;;9.70;99.90;;;;;;6267945;22;20010;-95
2022/02/08 09:27:06;;;;;;;10.52;1.55;;;9.90;99.90;;;;;;6315596;22;20018;-96
2022/02/08 09:30:00;;;;;;;5.65;0.95;;;9.90;99.90;;;;;;6321334;22;20017;-96
2022/02/08 09:35:08;;;;;;;8.50;1.50;;;10.00;99.90;;;;;;6318380;22;20004;-95
2022/02/08 09:38:29;;;;;;;11.55;1.70;;;10.00;99.90;;;;;;6268859;22;20007;-96
2022/02/08 09:41:53;;;;;;;11.40;1.40;;;10.00;99.90;;;;;;6290586;22;19999;-95
2022/02/08 09:44:45;;;;;;;13.52;1.45;;;10.00;99.90;;;;;;6173649;23;20017;-95
2022/02/08 09:56:19;;;;;;;9.82;1.20;;;10.10;99.90;;;;;;6240549;22;20015;-95
2022/02/08 09:59:19;;;;;;;2.03;0.63;;;10.10;99.90;;;;;;6233371;23;20059;-95
2022/02/08 10:05:14;;;;;;;4.25;0.70;;;10.20;99.90;;;;;;6253052;23;20019;-94
2022/02/08 10:07:46;;;;;;;3.05;0.98;;;10.30;99.90;;;;;;6239010;23;20035;-95
2022/02/08 10:21:42;;;;;;;6.10;0.65;;;10.50;99.90;;;;;;6256132;23;20023;-95
2022/02/08 10:28:50;;;;;;;;;;;;;;;;;;;;;
2022/02/08 10:31:57;;;;;;;3.75;0.60;;;10.60;99.90;;;;;;6241648;23;20448;-96
2022/02/08 10:38:33;;;;;;;3.35;0.70;;;10.70;99.90;;;;;;6168849;23;20086;-96
2022/02/08 10:42:03;;;;;;;5.55;1.67;;;10.70;99.90;;;;;;6046061;23;20016;-95
2022/02/08 10:54:47;;;;;;;2.47;0.40;;;10.90;99.90;;;;;;6014169;23;20657;-95
2022/02/08 10:57:44;;;;;;;1.40;0.50;;;11.00;99.90;;;;;;5987278;23;20027;-94
2022/02/08 11:00:31;;;;;;;2.72;0.40;;;11.10;99.90;;;;;;6013491;23;20011;-95
2022/02/08 11:03:19;;;;;;;1.23;0.30;;;11.20;99.90;;;;;;5989440;23;20015;-96
2022/02/08 11:13:27;;;;;;;;;;;;;;;;;;;;;
2022/02/08 11:16:29;;;;;;;1.17;0.57;;;11.90;99.90;;;;;;6081052;23;20007;-95
2022/02/08 11:19:46;;;;;;;2.30;0.40;;;12.10;99.90;;;;;;6135831;23;20006;-95
2022/02/08 11:25:36;;;;;;;2.53;0.32;;;12.60;99.90;;;;;;6140107;23;20010;-96
2022/02/08 11:28:19;;;;;;;0.73;0.35;;;12.70;99.90;;;;;;6114718;23;20009;-96
2022/02/08 11:41:07;;;;;;;1.70;0.20;;;13.60;99.90;;;;;;6161420;23;20039;-95
2022/02/08 11:44:07;;;;;;;1.42;0.30;;;13.70;99.90;;;;;;6170806;23;20022;-95
2022/02/08 14:04:01;;;;;;;1.90;0.73;;;13.40;99.90;;;;;;6218698;23;20490;-95
2022/02/08 14:11:44;;;;;;;2.80;0.63;;;13.20;99.90;;;;;;6219283;23;20047;-93
2022/02/08 14:14:27;;;;;;;4.75;0.80;;;13.10;99.90;;;;;;6218354;23;20000;-93
2022/02/08 14:19:46;;;;;;;3.63;0.50;;;13.10;99.90;;;;;;6218819;23;20336;-94
2022/02/08 14:30:31;;;;;;;4.18;1.20;;;13.00;99.90;;;;;;6218501;23;20035;-94
2022/02/08 14:36:09;;;;;;;2.85;1.08;;;12.90;99.90;;;;;;6187713;23;20015;-94
2022/02/08 14:57:52;;;;;;;4.30;0.73;;;12.70;99.90;;;;;;6225284;23;20011;-94
2022/02/08 15:00:37;;;;;;;4.38;0.75;;;12.70;99.90;;;;;;6222177;23;20062;-95
2022/02/08 15:08:33;;;;;;;3.20;0.82;;;12.80;99.90;;;;;;6266594;23;20023;-94
2022/02/08 15:13:59;;;;;;;1.65;0.57;;;12.70;99.90;;;;;;6251913;23;20079;-96
2022/02/08 15:16:35;;;;;;;5.47;0.90;;;12.70;99.90;;;;;;6223451;23;20079;-94
2022/02/08 15:19:01;;;;;;;5.65;0.98;;;12.70;99.90;;;;;;6228922;23;20004;-94
2022/02/08 15:21:32;;;;;;;5.25;0.90;;;12.60;99.90;;;;;;6232690;23;20012;-94
2022/02/08 15:24:06;;;;;;;4.72;0.70;;;12.60;99.90;;;;;;6239045;23;20055;-93
2022/02/08 15:26:32;;;;;;;6.78;1.40;;;12.60;99.90;;;;;;6232830;23;20015;-94
2022/02/08 15:29:03;;;;;;;4.38;0.88;;;12.60;99.90;;;;;;6234500;23;20044;-96
2022/02/08 15:31:29;;;;;;;5.38;1.48;;;12.40;99.90;;;;;;6234642;23;20090;-95
2022/02/08 15:33:59;;;;;;;4.85;1.63;;;12.40;99.90;;;;;;6236517;23;20008;-93
2022/02/08 15:36:25;;;;;;;3.22;1.15;;;12.40;99.90;;;;;;6240347;23;20068;-94
2022/02/08 15:39:01;;;;;;;4.00;1.40;;;12.30;99.90;;;;;;6238423;23;20016;-94
2022/02/08 15:41:37;;;;;;;;;;;;;;;;;;;;;
2022/02/08 15:44:24;;;;;;;3.58;0.95;;;12.20;99.90;;;;;;6264712;23;20004;-95
2022/02/08 15:46:55;;;;;;;5.38;1.15;;;12.10;99.90;;;;;;6212745;23;20091;-94
2022/02/08 15:49:21;;;;;;;;;;;12.00;99.90;;;;;;6237261;23;20091;-95
2022/02/08 15:52:10;;;;;;;5.03;0.63;;;12.00;99.90;;;;;;6233275;23;19934;-96
2022/02/08 15:54:43;;;;;;;6.88;1.40;;;12.00;99.90;;;;;;6234672;23;20000;-93
2022/02/08 16:08:26;;;;;;;5.13;1.35;;;11.80;99.90;;;;;;6165073;23;20024;-95
2022/02/08 16:30:03;;;;;;;8.48;1.50;;;11.50;99.90;;;;;;6171654;23;20061;-94
2022/02/08 16:59:38;;;;;;;7.43;1.10;;;11.30;99.90;;;;;;6250607;23;20070;-95
2022/02/08 17:02:18;;;;;;;4.55;1.27;;;11.30;99.90;;;;;;6223076;23;20443;-93
2022/02/08 17:04:49;;;;;;;7.07;1.55;;;11.20;99.90;;;;;;6230331;23;20004;-95
2022/02/08 17:07:15;;;;;;;4.65;1.13;;;11.20;99.90;;;;;;6238654;23;20054;-94
2022/02/08 17:09:53;;;;;;;3.35;0.82;;;11.20;99.90;;;;;;6230031;23;20425;-94
2022/02/08 17:12:29;;;;;;;12.32;1.85;;;11.20;99.90;;;;;;6221575;23;20004;-94
2022/02/08 17:50:01;;;;;;;4.57;1.15;;;10.90;99.90;;;;;;6248279;23;20000;-94
2022/02/08 17:52:31;;;;;;;6.32;1.00;;;10.90;99.90;;;;;;6227281;23;20008;-95
2022/02/08 17:54:57;;;;;;;6.43;1.40;;;10.90;99.90;;;;;;6224958;23;20012;-92
2022/02/08 17:57:22;;;;;;;6.85;1.38;;;11.00;99.90;;;;;;6220579;23;20031;-93
2022/02/08 17:59:48;;;;;;;5.30;1.17;;;11.00;99.90;;;;;;6228689;23;20043;-94
2022/02/08 18:02:14;;;;;;;7.75;0.90;;;11.00;99.90;;;;;;6237592;23;20042;-94
2022/02/08 18:04:39;;;;;;;5.38;1.08;;;11.00;99.90;;;;;;6245423;23;20027;-92
2022/02/08 18:07:05;;;;;;;7.78;1.40;;;11.10;99.90;;;;;;6241819;23;20007;-92
2022/02/08 18:09:31;;;;;;;5.03;1.10;;;11.00;99.90;;;;;;6221995;23;20058;-92
2022/02/08 18:12:00;;;;;;;5.63;1.60;;;11.00;99.90;;;;;;6220413;23;20011;-92
2022/02/08 18:14:27;;;;;;;6.40;1.90;;;11.00;99.90;;;;;;6224766;23;20003;-95
2022/02/08 18:17:06;;;;;;;2.75;1.05;;;11.00;99.90;;;;;;6221716;23;20012;-94
2022/02/08 18:19:37;;;;;;;2.38;0.60;;;11.00;99.90;;;;;;6219782;23;20046;-93
2022/02/08 18:22:24;;;;;;;4.68;1.10;;;10.90;99.90;;;;;;6221854;23;20157;-93
2022/02/08 18:25:29;;;;;;;6.13;1.10;;;10.80;99.90;;;;;;6221063;23;20008;-93
2022/02/08 19:08:35;;;;;;;3.80;0.90;;;10.70;99.90;;;;;;6251415;23;20043;-94
2022/02/08 19:21:45;;;;;;;3.80;1.35;;;10.60;99.90;;;;;;6157620;23;20013;-93
2022/02/08 19:24:12;;;;;;;4.05;1.02;;;10.60;99.90;;;;;;6162037;23;19998;-93
2022/02/08 19:26:38;;;;;;;5.03;1.52;;;10.50;99.90;;;;;;6139915;23;20009;-92
2022/02/08 19:29:04;;;;;;;7.95;1.58;;;10.50;99.90;;;;;;6157026;23;20329;-93
2022/02/08 19:31:31;;;;;;;9.10;1.30;;;10.40;99.90;;;;;;6155103;23;20105;-93
2022/02/08 19:33:57;;;;;;;5.47;1.83;;;10.50;99.90;;;;;;6155574;23;20084;-92
2022/02/08 19:36:23;;;;;;;5.60;1.30;;;10.40;99.90;;;;;;6155160;23;20040;-92
2022/02/08 19:38:49;;;;;;;4.70;1.30;;;10.40;99.90;;;;;;6154732;23;20025;-91
2022/02/08 19:41:19;;;;;;;4.28;1.45;;;10.40;99.90;;;;;;6129837;23;20017;-93
2022/02/08 19:43:46;;;;;;;5.13;1.27;;;10.40;99.90;;;;;;6152906;23;20001;-92
2022/02/08 19:46:13;;;;;;;3.85;1.23;;;10.50;99.90;;;;;;6157466;23;20013;-92
2022/02/08 19:48:38;;;;;;;3.85;1.00;;;10.40;99.90;;;;;;6154449;23;20028;-93
2022/02/08 19:51:04;;;;;;;4.13;0.95;;;10.40;99.90;;;;;;6223973;23;19995;-95
2022/02/08 19:53:33;;;;;;;2.75;0.73;;;10.40;99.90;;;;;;6197247;23;20008;-90
2022/02/08 19:58:37;;;;;;;4.80;1.83;;;10.30;99.90;;;;;;6257797;23;20008;-93
2022/02/08 20:01:11;;;;;;;1.63;0.70;;;10.30;99.90;;;;;;6221414;23;20008;-92
2022/02/08 20:03:54;;;;;;;3.28;0.82;;;10.30;99.90;;;;;;6227327;23;20019;-91
2022/02/08 20:06:19;;;;;;;4.70;0.93;;;10.20;99.90;;;;;;6241263;23;20014;-93
2022/02/08 20:08:45;;;;;;;6.00;0.93;;;10.20;99.90;;;;;;6237249;23;20004;-93
2022/02/08 20:11:11;;;;;;;3.45;0.82;;;10.20;99.90;;;;;;6228274;23;20011;-93
2022/02/08 20:13:44;;;;;;;3.83;0.82;;;10.20;99.90;;;;;;6222045;23;20000;-92
2022/02/08 20:16:10;;;;;;;3.72;1.33;;;10.20;99.90;;;;;;6222962;23;20039;-93
2022/02/08 20:18:36;;;;;;;3.03;0.90;;;10.30;99.90;;;;;;6222512;23;20004;-92
2022/02/08 20:21:02;;;;;;;3.50;0.90;;;10.30;99.90;;;;;;6221081;23;20407;-92
2022/02/08 20:23:28;;;;;;;3.17;1.10;;;10.30;99.90;;;;;;6220519;23;19996;-92
2022/02/08 20:25:55;;;;;;;7.20;0.90;;;10.30;99.90;;;;;;6220631;23;20030;-92
2022/02/08 20:28:26;;;;;;;5.45;1.00;;;10.40;99.90;;;;;;6220617;23;20356;-93
2022/02/08 20:30:52;;;;;;;1.25;0.90;;;10.30;99.90;;;;;;6220551;23;20075;-91
2022/02/08 20:33:19;;;;;;;2.33;0.98;;;10.30;99.90;;;;;;6220799;23;20335;-93
2022/02/08 20:35:45;;;;;;;5.25;1.10;;;10.30;99.90;;;;;;6224591;23;20053;-93
2022/02/08 20:38:14;;;;;;;4.15;1.17;;;10.40;99.90;;;;;;6233528;23;20012;-92
2022/02/08 20:40:40;;;;;;;2.17;0.85;;;10.40;99.90;;;;;;6227038;23;20439;-91
2022/02/08 20:43:10;;;;;;;3.42;1.00;;;10.40;99.90;;;;;;6223833;23;20012;-93
2022/02/08 20:45:39;;;;;;;1.85;1.02;;;10.40;99.90;;;;;;6227535;23;19996;-93
2022/02/08 20:48:05;;;;;;;3.90;0.80;;;10.50;99.90;;;;;;6222828;23;20417;-92
2022/02/08 20:50:32;;;;;;;4.78;0.90;;;10.50;99.90;;;;;;6227626;23;20104;-91
2022/02/08 20:53:05;;;;;;;1.65;0.60;;;10.50;99.90;;;;;;6224270;23;20008;-92
2022/02/08 20:56:09;;;;;;;5.30;0.88;;;10.40;99.90;;;;;;6220352;23;20013;-91
2022/02/08 20:58:38;;;;;;;7.10;1.25;;;10.40;99.90;;;;;;6240647;22;20016;-91
2022/02/08 21:01:04;;;;;;;;;;;10.30;99.90;;;;;;6220290;23;20004;-90
2022/02/08 21:03:50;;;;;;;3.08;0.77;;;10.30;99.90;;;;;;6218475;23;19914;-92
2022/02/08 21:06:20;;;;;;;1.48;0.50;;;10.20;99.90;;;;;;6245418;23;20000;-92
2022/02/08 21:08:45;;;;;;;3.45;0.93;;;10.20;99.90;;;;;;6218723;23;20008;-91
2022/02/08 21:11:12;;;;;;;7.28;1.13;;;10.20;99.90;;;;;;6219115;23;20008;-90
2022/02/08 21:16:15;;;;;;;5.88;1.00;;;10.10;99.90;;;;;;6254747;23;20040;-93
2022/02/08 21:18:41;;;;;;;2.15;0.75;;;10.10;99.90;;;;;;6218675;23;20000;-91
2022/02/08 21:21:07;;;;;;;6.20;0.90;;;10.10;99.90;;;;;;6215568;23;20016;-91
2022/02/08 21:23:34;;;;;;;5.95;0.80;;;10.10;99.90;;;;;;6223891;23;20009;-93
2022/02/08 21:26:02;;;;;;;2.13;0.68;;;10.00;99.90;;;;;;6216183;23;20023;-91
2022/02/08 21:32:00;;;;;;;2.90;0.90;;;10.00;99.90;;;;;;6254176;23;20054;-92
2022/02/08 21:50:00;;;;;;;6.38;1.38;;;9.90;99.90;;;;;;6244486;23;20014;-90
2022/02/08 21:52:33;;;;;;;3.97;1.02;;;9.90;99.90;;;;;;6217819;23;20012;-92
2022/02/08 21:55:08;;;;;;;4.40;1.00;;;9.90;99.90;;;;;;6217638;23;20023;-90
2022/02/08 21:57:52;;;;;;;3.35;0.82;;;9.80;99.90;;;;;;6218095;23;20004;-92
2022/02/08 22:00:19;;;;;;;7.00;0.90;;;9.80;99.90;;;;;;6217035;23;20028;-92
2022/02/08 22:02:45;;;;;;;9.10;2.65;;;9.90;99.90;;;;;;6218266;23;20022;-91
2022/02/08 22:05:11;;;;;;;5.22;1.17;;;9.80;99.90;;;;;;6219163;23;20027;-92
2022/02/08 22:07:37;;;;;;;6.43;1.02;;;9.80;99.90;;;;;;6217707;23;20019;-93
2022/02/08 22:15:43;;;;;;;5.68;0.82;;;9.90;99.90;;;;;;6217690;23;20032;-93
2022/02/08 22:19:10;;;;;;;2.22;0.80;;;9.80;99.90;;;;;;6123809;23;20010;-92
2022/02/08 22:24:19;;;;;;;5.53;0.85;;;9.80;99.90;;;;;;6132247;23;20093;-93
2022/02/08 22:29:35;;;;;;;;;;;9.80;99.90;;;;;;6132774;23;20014;-91
2022/02/08 22:32:09;;;;;;;7.60;1.00;;;9.80;99.90;;;;;;6103543;23;19959;-92
2022/02/08 22:39:50;;;;;;;5.93;0.90;;;9.80;99.90;;;;;;6128284;23;20501;-90
2022/02/08 22:42:22;;;;;;;5.03;0.90;;;9.80;99.90;;;;;;6121836;23;20018;-91
2022/02/08 22:47:16;;;;;;;6.38;1.02;;;9.90;99.90;;;;;;6123436;23;20042;-90
2022/02/08 22:49:42;;;;;;;1.73;0.90;;;9.90;99.90;;;;;;6098253;23;20010;-90
2022/02/08 22:52:08;;;;;;;5.82;1.13;;;9.90;99.90;;;;;;6145017;23;20004;-89
2022/02/08 22:54:35;;;;;;;3.90;0.70;;;9.90;99.90;;;;;;6218729;23;20087;-93
2022/02/08 22:57:01;;;;;;;6.57;1.40;;;9.90;99.90;;;;;;6218691;23;20015;-91